createdAt,value
2018-07-28T00:00:03.839Z,0.00
2018-07-28T00:01:03.820Z,0.00
2018-07-28T00:02:03.804Z,0.00
2018-07-28T00:03:03.799Z,0.00
2018-07-28T00:04:03.785Z,0.00
2018-07-28T00:05:03.806Z,0.00
2018-07-28T00:06:03.762Z,0.00
2018-07-28T00:07:03.757Z,0.00
2018-07-28T00:08:03.750Z,0.00
2018-07-28T00:09:03.727Z,0.00
2018-07-28T00:10:03.735Z,0.00
2018-07-28T00:11:03.709Z,0.00
2018-07-28T00:12:03.693Z,0.00
2018-07-28T00:13:03.691Z,0.00
2018-07-28T00:14:03.681Z,0.00
2018-07-28T00:15:04.269Z,0.00
2018-07-28T00:16:03.673Z,0.00
2018-07-28T00:17:03.644Z,0.00
2018-07-28T00:18:03.626Z,0.00
2018-07-28T00:19:03.622Z,0.00
2018-07-28T00:20:03.621Z,0.00
2018-07-28T00:21:03.616Z,0.00
2018-07-28T00:22:03.592Z,0.00
2018-07-28T00:23:03.573Z,0.00
2018-07-28T00:24:03.585Z,0.00
2018-07-28T00:25:03.553Z,0.00
2018-07-28T00:26:03.582Z,0.00
2018-07-28T00:27:03.532Z,0.00
2018-07-28T00:28:03.529Z,0.00
2018-07-28T00:29:03.517Z,0.00
2018-07-28T00:30:03.501Z,0.00
2018-07-28T00:31:03.511Z,0.00
2018-07-28T00:32:03.477Z,0.00
2018-07-28T00:33:03.471Z,0.00
2018-07-28T00:34:03.465Z,0.00
2018-07-28T00:35:03.448Z,0.00
2018-07-28T00:36:03.447Z,0.00
2018-07-28T00:37:03.439Z,0.00
2018-07-28T00:38:03.421Z,0.00
2018-07-28T00:39:03.418Z,0.00
2018-07-28T00:40:03.396Z,0.00
2018-07-28T00:41:03.385Z,0.00
2018-07-28T00:42:03.408Z,0.00
2018-07-28T00:43:03.376Z,0.00
2018-07-28T00:44:03.350Z,0.00
2018-07-28T00:45:03.362Z,0.00
2018-07-28T00:46:03.331Z,0.00
2018-07-28T00:47:03.348Z,0.00
2018-07-28T00:48:03.336Z,0.00
2018-07-28T00:49:03.325Z,0.00
2018-07-28T00:50:03.287Z,0.00
2018-07-28T00:51:03.284Z,0.00
2018-07-28T00:52:03.278Z,0.00
2018-07-28T00:53:03.253Z,0.00
2018-07-28T00:54:03.245Z,0.00
2018-07-28T00:55:03.257Z,0.00
2018-07-28T00:56:03.226Z,0.00
2018-07-28T00:57:03.232Z,0.00
2018-07-28T00:58:03.201Z,0.00
2018-07-28T00:59:03.196Z,0.00
2018-07-28T01:00:03.197Z,0.00
2018-07-28T01:01:03.175Z,0.00
2018-07-28T01:02:03.159Z,0.00
2018-07-28T01:03:03.163Z,0.00
2018-07-28T01:04:03.155Z,0.00
2018-07-28T01:05:03.145Z,0.00
2018-07-28T01:06:03.134Z,0.00
2018-07-28T01:07:03.108Z,0.00
2018-07-28T01:08:03.101Z,0.00
2018-07-28T01:09:10.639Z,0.00
2018-07-28T01:10:12.339Z,0.00
2018-07-28T01:11:03.067Z,0.00
2018-07-28T01:12:03.056Z,0.00
2018-07-28T01:13:03.042Z,0.00
2018-07-28T01:14:03.037Z,0.00
2018-07-28T01:15:03.045Z,0.00
2018-07-28T01:16:03.018Z,0.00
2018-07-28T01:17:03.008Z,0.00
2018-07-28T01:18:02.992Z,0.00
2018-07-28T01:19:02.980Z,0.00
2018-07-28T01:20:02.982Z,0.00
2018-07-28T01:21:02.977Z,0.00
2018-07-28T01:22:02.947Z,0.00
2018-07-28T01:23:02.940Z,0.00
2018-07-28T01:24:02.931Z,0.00
2018-07-28T01:25:02.918Z,0.00
2018-07-28T01:26:02.933Z,0.00
2018-07-28T01:27:02.895Z,0.00
2018-07-28T01:28:02.888Z,0.00
2018-07-28T01:29:02.876Z,0.00
2018-07-28T01:30:02.866Z,0.00
2018-07-28T01:31:02.877Z,0.00
2018-07-28T01:32:02.859Z,0.00
2018-07-28T01:33:02.834Z,0.00
2018-07-28T01:34:02.825Z,0.00
2018-07-28T01:35:02.811Z,0.00
2018-07-28T01:36:02.817Z,0.00
2018-07-28T01:37:02.792Z,0.00
2018-07-28T01:38:02.789Z,0.00
2018-07-28T01:39:02.771Z,0.00
2018-07-28T01:40:02.760Z,0.00
2018-07-28T01:41:02.765Z,0.00
2018-07-28T01:42:02.755Z,0.00
2018-07-28T01:43:02.727Z,0.00
2018-07-28T01:44:02.731Z,0.00
2018-07-28T01:45:02.713Z,0.00
2018-07-28T01:46:02.710Z,0.00
2018-07-28T01:47:02.687Z,0.00
2018-07-28T01:48:02.689Z,0.00
2018-07-28T01:49:02.664Z,0.00
2018-07-28T01:50:02.665Z,0.00
2018-07-28T01:51:02.648Z,0.00
2018-07-28T01:52:02.657Z,0.00
2018-07-28T01:53:02.621Z,0.00
2018-07-28T01:54:02.613Z,0.00
2018-07-28T01:55:02.617Z,0.00
2018-07-28T01:56:02.600Z,0.00
2018-07-28T01:57:02.589Z,0.00
2018-07-28T01:58:02.569Z,0.00
2018-07-28T01:59:02.601Z,0.00
2018-07-28T02:00:02.566Z,0.00
2018-07-28T02:01:02.538Z,0.00
2018-07-28T02:02:02.526Z,0.00
2018-07-28T02:03:02.548Z,0.00
2018-07-28T02:04:02.505Z,0.00
2018-07-28T02:05:02.516Z,0.00
2018-07-28T02:06:02.493Z,0.00
2018-07-28T02:07:02.500Z,0.00
2018-07-28T02:08:02.487Z,0.00
2018-07-28T02:09:02.454Z,0.00
2018-07-28T02:10:02.449Z,0.00
2018-07-28T02:11:02.455Z,0.00
2018-07-28T02:12:02.436Z,0.00
2018-07-28T02:13:02.429Z,0.00
2018-07-28T02:14:02.401Z,0.00
2018-07-28T02:15:02.394Z,0.00
2018-07-28T02:16:02.386Z,0.00
2018-07-28T02:17:02.387Z,0.00
2018-07-28T02:18:02.377Z,0.00
2018-07-28T02:19:02.382Z,0.00
2018-07-28T02:20:02.336Z,0.00
2018-07-28T02:21:02.348Z,0.00
2018-07-28T02:22:02.337Z,0.00
2018-07-28T02:23:02.336Z,0.00
2018-07-28T02:24:02.295Z,0.00
2018-07-28T02:25:02.304Z,0.00
2018-07-28T02:26:02.339Z,0.00
2018-07-28T02:27:02.293Z,0.00
2018-07-28T02:28:02.275Z,0.00
2018-07-28T02:29:02.320Z,0.00
2018-07-28T02:30:02.241Z,0.00
2018-07-28T02:31:02.230Z,0.00
2018-07-28T02:32:02.228Z,0.00
2018-07-28T02:33:02.197Z,0.00
2018-07-28T02:34:02.200Z,0.00
2018-07-28T02:35:02.205Z,0.00
2018-07-28T02:36:02.170Z,0.00
2018-07-28T02:37:02.157Z,0.00
2018-07-28T02:38:02.146Z,0.00
2018-07-28T02:39:02.167Z,0.00
2018-07-28T02:40:02.127Z,0.00
2018-07-28T02:41:02.120Z,0.00
2018-07-28T02:42:02.103Z,0.00
2018-07-28T02:43:02.092Z,0.00
2018-07-28T02:44:02.110Z,0.00
2018-07-28T02:45:02.073Z,0.00
2018-07-28T02:46:02.083Z,0.00
2018-07-28T02:47:02.049Z,0.00
2018-07-28T02:48:02.038Z,0.00
2018-07-28T02:49:02.040Z,0.00
2018-07-28T02:50:02.080Z,0.00
2018-07-28T02:51:02.007Z,0.00
2018-07-28T02:52:01.994Z,0.00
2018-07-28T02:53:01.980Z,0.00
2018-07-28T02:54:01.971Z,0.00
2018-07-28T02:55:01.973Z,0.00
2018-07-28T02:56:01.989Z,0.00
2018-07-28T02:57:01.938Z,0.00
2018-07-28T02:58:01.926Z,0.00
2018-07-28T02:59:01.916Z,0.00
2018-07-28T03:00:01.906Z,0.00
2018-07-28T03:01:01.897Z,0.00
2018-07-28T03:02:01.921Z,0.00
2018-07-28T03:03:01.871Z,0.00
2018-07-28T03:04:01.865Z,0.00
2018-07-28T03:05:01.848Z,0.00
2018-07-28T03:06:01.842Z,0.00
2018-07-28T03:07:01.855Z,4.00
2018-07-28T03:08:01.841Z,4.00
2018-07-28T03:09:01.813Z,0.00
2018-07-28T03:10:01.827Z,4.00
2018-07-28T03:11:01.790Z,4.00
2018-07-28T03:12:01.772Z,4.00
2018-07-28T03:13:01.782Z,4.00
2018-07-28T03:14:01.765Z,4.00
2018-07-28T03:15:01.746Z,8.00
2018-07-28T03:16:01.734Z,8.00
2018-07-28T03:17:01.717Z,8.00
2018-07-28T03:18:01.724Z,12.00
2018-07-28T03:19:01.707Z,12.00
2018-07-28T03:20:01.691Z,12.00
2018-07-28T03:21:01.683Z,12.00
2018-07-28T03:22:01.683Z,16.00
2018-07-28T03:23:01.697Z,20.00
2018-07-28T03:24:01.664Z,20.00
2018-07-28T03:25:02.328Z,24.00
2018-07-28T03:26:01.626Z,24.00
2018-07-28T03:27:01.613Z,32.00
2018-07-28T03:28:01.599Z,36.00
2018-07-28T03:29:01.613Z,44.00
2018-07-28T03:30:01.579Z,48.00
2018-07-28T03:31:01.567Z,52.00
2018-07-28T03:32:01.559Z,60.00
2018-07-28T03:33:01.550Z,64.00
2018-07-28T03:34:01.535Z,72.00
2018-07-28T03:35:01.543Z,80.00
2018-07-28T03:36:01.514Z,88.00
2018-07-28T03:37:01.506Z,100.00
2018-07-28T03:38:01.493Z,112.00
2018-07-28T03:39:01.498Z,120.00
2018-07-28T03:40:01.469Z,136.00
2018-07-28T03:41:01.460Z,144.00
2018-07-28T03:42:01.449Z,160.00
2018-07-28T03:43:01.459Z,176.00
2018-07-28T03:44:01.447Z,188.00
2018-07-28T03:45:01.417Z,204.00
2018-07-28T03:46:01.414Z,220.00
2018-07-28T03:47:01.396Z,236.00
2018-07-28T03:48:01.391Z,252.00
2018-07-28T03:49:01.378Z,268.00
2018-07-28T03:50:01.380Z,288.00
2018-07-28T03:51:01.354Z,304.00
2018-07-28T03:52:01.342Z,324.00
2018-07-28T03:53:01.329Z,344.00
2018-07-28T03:54:01.317Z,368.00
2018-07-28T03:55:01.324Z,388.00
2018-07-28T03:56:01.349Z,412.00
2018-07-28T03:57:01.288Z,436.00
2018-07-28T03:58:01.276Z,464.00
2018-07-28T03:59:01.269Z,484.00
2018-07-28T04:00:01.256Z,512.00
2018-07-28T04:01:01.248Z,536.00
2018-07-28T04:02:01.257Z,568.00
2018-07-28T04:03:01.223Z,596.00
2018-07-28T04:04:01.214Z,624.00
2018-07-28T04:05:01.202Z,656.00
2018-07-28T04:06:01.216Z,688.00
2018-07-28T04:07:01.184Z,724.00
2018-07-28T04:08:01.168Z,756.00
2018-07-28T04:09:01.170Z,792.00
2018-07-28T04:10:01.144Z,828.00
2018-07-28T04:11:01.133Z,856.00
2018-07-28T04:12:01.138Z,888.00
2018-07-28T04:13:01.112Z,924.00
2018-07-28T04:14:01.116Z,960.00
2018-07-28T04:15:01.128Z,1004.00
2018-07-28T04:16:01.101Z,1044.00
2018-07-28T04:17:01.099Z,1080.00
2018-07-28T04:18:01.076Z,1112.00
2018-07-28T04:19:01.049Z,1140.00
2018-07-28T04:20:01.057Z,1164.00
2018-07-28T04:21:01.024Z,1192.00
2018-07-28T04:22:01.013Z,1220.00
2018-07-28T04:23:01.004Z,1248.00
2018-07-28T04:24:00.998Z,1280.00
2018-07-28T04:25:00.984Z,1304.00
2018-07-28T04:26:00.988Z,1332.00
2018-07-28T04:27:00.959Z,1372.00
2018-07-28T04:28:00.954Z,1412.00
2018-07-28T04:29:00.943Z,1428.00
2018-07-28T04:30:00.932Z,1408.00
2018-07-28T04:31:00.939Z,1392.00
2018-07-28T04:32:00.907Z,1420.00
2018-07-28T04:33:00.897Z,1452.00
2018-07-28T04:34:00.889Z,1472.00
2018-07-28T04:35:00.875Z,1496.00
2018-07-28T04:36:00.865Z,1528.00
2018-07-28T04:37:00.927Z,1564.00
2018-07-28T04:38:00.840Z,1624.00
2018-07-28T04:39:00.829Z,1648.00
2018-07-28T04:40:00.819Z,1696.00
2018-07-28T04:41:00.810Z,1692.00
2018-07-28T04:42:00.817Z,1632.00
2018-07-28T04:43:00.790Z,1640.00
2018-07-28T04:44:00.804Z,1668.00
2018-07-28T04:45:00.764Z,1728.00
2018-07-28T04:46:00.777Z,1804.00
2018-07-28T04:47:00.749Z,1840.00
2018-07-28T04:48:00.737Z,1848.00
2018-07-28T04:49:00.720Z,1868.00
2018-07-28T04:50:00.713Z,1852.00
2018-07-28T04:51:00.702Z,1840.00
2018-07-28T04:52:00.709Z,1792.00
2018-07-28T04:53:00.716Z,1776.00
2018-07-28T04:54:00.666Z,1848.00
2018-07-28T04:55:00.657Z,1968.00
2018-07-28T04:56:00.648Z,2116.00
2018-07-28T04:57:00.633Z,2280.00
2018-07-28T04:58:00.623Z,2476.00
2018-07-28T04:59:00.644Z,2548.00
2018-07-28T05:00:00.607Z,2440.00
2018-07-28T05:01:00.590Z,2212.00
2018-07-28T05:02:00.621Z,2060.00
2018-07-28T05:03:00.570Z,1992.00
2018-07-28T05:04:00.558Z,1976.00
2018-07-28T05:05:00.562Z,1984.00
2018-07-28T05:06:00.536Z,2036.00
2018-07-28T05:07:00.527Z,2100.00
2018-07-28T05:08:00.516Z,2156.00
2018-07-28T05:09:00.528Z,2204.00
2018-07-28T05:10:00.508Z,2260.00
2018-07-28T05:11:00.482Z,2316.00
2018-07-28T05:12:00.472Z,2368.00
2018-07-28T05:13:00.458Z,2416.00
2018-07-28T05:14:00.449Z,2480.00
2018-07-28T05:15:00.464Z,2516.00
2018-07-28T05:16:00.503Z,2584.00
2018-07-28T05:17:00.419Z,2708.00
2018-07-28T05:18:00.407Z,2852.00
2018-07-28T05:19:00.398Z,3628.00
2018-07-28T05:20:00.385Z,4364.00
2018-07-28T05:21:00.395Z,4528.00
2018-07-28T05:22:00.376Z,4660.00
2018-07-28T05:23:00.365Z,4764.00
2018-07-28T05:24:00.346Z,4852.00
2018-07-28T05:25:00.331Z,3764.00
2018-07-28T05:26:00.318Z,2864.00
2018-07-28T05:27:00.333Z,2720.00
2018-07-28T05:28:00.303Z,2688.00
2018-07-28T05:29:00.286Z,2728.00
2018-07-28T05:30:00.276Z,2772.00
2018-07-28T05:31:00.294Z,2820.00
2018-07-28T05:32:00.277Z,2888.00
2018-07-28T05:33:00.243Z,2956.00
2018-07-28T05:34:00.234Z,3052.00
2018-07-28T05:35:00.221Z,4080.00
2018-07-28T05:36:00.211Z,3276.00
2018-07-28T05:37:00.278Z,3300.00
2018-07-28T05:38:00.201Z,3320.00
2018-07-28T05:39:00.233Z,3384.00
2018-07-28T05:40:00.165Z,3460.00
2018-07-28T05:41:00.173Z,3584.00
2018-07-28T05:42:00.145Z,3864.00
2018-07-28T05:43:00.150Z,4308.00
2018-07-28T05:44:00.125Z,5532.00
2018-07-28T05:45:00.115Z,6744.00
2018-07-28T05:46:00.100Z,6752.00
2018-07-28T05:47:00.089Z,6768.00
2018-07-28T05:48:00.096Z,6916.00
2018-07-28T05:49:00.073Z,7108.00
2018-07-28T05:50:00.069Z,7200.00
2018-07-28T05:51:00.050Z,7336.00
2018-07-28T05:52:00.051Z,7464.00
2018-07-28T05:53:00.027Z,7536.00
2018-07-28T05:54:00.018Z,7640.00
2018-07-28T05:55:00.005Z,7688.00
2018-07-28T05:55:59.993Z,7728.00
2018-07-28T05:56:59.997Z,7796.00
2018-07-28T05:57:59.974Z,7864.00
2018-07-28T05:58:59.977Z,7964.00
2018-07-28T05:59:59.967Z,8040.00
2018-07-28T06:00:59.940Z,8128.00
2018-07-28T06:01:59.974Z,8232.00
2018-07-28T06:02:59.916Z,8320.00
2018-07-28T06:03:59.911Z,8344.00
2018-07-28T06:04:59.900Z,8340.00
2018-07-28T06:05:59.885Z,8408.00
2018-07-28T06:06:59.876Z,8460.00
2018-07-28T06:07:59.889Z,8480.00
2018-07-28T06:08:59.856Z,8548.00
2018-07-28T06:09:59.845Z,8584.00
2018-07-28T06:10:59.832Z,8636.00
2018-07-28T06:11:59.822Z,8684.00
2018-07-28T06:12:59.809Z,8760.00
2018-07-28T06:13:59.828Z,8860.00
2018-07-28T06:14:59.789Z,8928.00
2018-07-28T06:15:59.780Z,8988.00
2018-07-28T06:16:59.789Z,9044.00
2018-07-28T06:17:59.779Z,9060.00
2018-07-28T06:18:59.748Z,9132.00
2018-07-28T06:19:59.738Z,9172.00
2018-07-28T06:20:59.730Z,9252.00
2018-07-28T06:21:59.769Z,9356.00
2018-07-28T06:22:59.709Z,9400.00
2018-07-28T06:23:59.724Z,9432.00
2018-07-28T06:24:59.681Z,9480.00
2018-07-28T06:25:59.687Z,9488.00
2018-07-28T06:26:59.659Z,9564.00
2018-07-28T06:27:59.666Z,9624.00
2018-07-28T06:28:59.637Z,9668.00
2018-07-28T06:29:59.632Z,9680.00
2018-07-28T06:30:59.617Z,9704.00
2018-07-28T06:31:59.682Z,9752.00
2018-07-28T06:32:59.606Z,9812.00
2018-07-28T06:33:59.602Z,9884.00
2018-07-28T06:34:59.572Z,9944.00
2018-07-28T06:35:59.568Z,10012.00
2018-07-28T06:36:59.555Z,10068.00
2018-07-28T06:37:59.541Z,10140.00
2018-07-28T06:38:59.554Z,10172.00
2018-07-28T06:39:59.524Z,10268.00
2018-07-28T06:40:59.515Z,10336.00
2018-07-28T06:41:59.499Z,10420.00
2018-07-28T06:42:59.489Z,10492.00
2018-07-28T06:43:59.486Z,10580.00
2018-07-28T06:44:59.482Z,10604.00
2018-07-28T06:45:59.461Z,10744.00
2018-07-28T06:46:59.448Z,11096.00
2018-07-28T06:47:59.479Z,11424.00
2018-07-28T06:48:59.426Z,11344.00
2018-07-28T06:49:59.431Z,11060.00
2018-07-28T06:50:59.404Z,11036.00
2018-07-28T06:51:59.392Z,11324.00
2018-07-28T06:52:59.382Z,11192.00
2018-07-28T06:53:59.372Z,8292.00
2018-07-28T06:54:59.381Z,13748.00
2018-07-28T06:55:59.356Z,14756.00
2018-07-28T06:56:59.341Z,15460.00
2018-07-28T06:57:59.346Z,16064.00
2018-07-28T06:58:59.322Z,13048.00
2018-07-28T06:59:59.327Z,12564.00
2018-07-28T07:00:59.301Z,11980.00
2018-07-28T07:01:59.287Z,12368.00
2018-07-28T07:02:59.279Z,11380.00
2018-07-28T07:03:59.268Z,10420.00
2018-07-28T07:04:59.293Z,10428.00
2018-07-28T07:05:59.250Z,11316.00
2018-07-28T07:06:59.234Z,13156.00
2018-07-28T07:07:59.229Z,14872.00
2018-07-28T07:08:59.216Z,16152.00
2018-07-28T07:09:59.206Z,16168.00
2018-07-28T07:10:59.212Z,16800.00
2018-07-28T07:11:59.185Z,17568.00
2018-07-28T07:12:59.196Z,18432.00
2018-07-28T07:13:59.160Z,18592.00
2018-07-28T07:14:59.151Z,18432.00
2018-07-28T07:15:59.142Z,19488.00
2018-07-28T07:16:59.147Z,17728.00
2018-07-28T07:17:59.121Z,15896.00
2018-07-28T07:18:59.127Z,16576.00
2018-07-28T07:19:59.101Z,14432.00
2018-07-28T07:20:59.089Z,13800.00
2018-07-28T07:21:59.097Z,13648.00
2018-07-28T07:22:59.067Z,13340.00
2018-07-28T07:23:59.099Z,13044.00
2018-07-28T07:24:59.061Z,12644.00
2018-07-28T07:25:59.036Z,12236.00
2018-07-28T07:26:59.024Z,11528.00
2018-07-28T07:27:59.013Z,10704.00
2018-07-28T07:28:59.007Z,10272.00
2018-07-28T07:29:59.021Z,10260.00
2018-07-28T07:30:58.990Z,10772.00
2018-07-28T07:31:58.973Z,11720.00
2018-07-28T07:32:58.963Z,13836.00
2018-07-28T07:33:58.999Z,13252.00
2018-07-28T07:34:58.940Z,15496.00
2018-07-28T07:35:58.937Z,13328.00
2018-07-28T07:36:58.922Z,13060.00
2018-07-28T07:37:58.910Z,17248.00
2018-07-28T07:38:58.901Z,14140.00
2018-07-28T07:39:58.917Z,18912.00
2018-07-28T07:40:58.882Z,18720.00
2018-07-28T07:41:58.870Z,21280.00
2018-07-28T07:42:58.861Z,22496.00
2018-07-28T07:43:58.849Z,23264.00
2018-07-28T07:44:58.838Z,23552.00
2018-07-28T07:45:58.852Z,23616.00
2018-07-28T07:46:58.820Z,21728.00
2018-07-28T07:47:58.805Z,22880.00
2018-07-28T07:48:58.793Z,25824.00
2018-07-28T07:49:58.786Z,21984.00
2018-07-28T07:50:58.775Z,23232.00
2018-07-28T07:51:58.787Z,21344.00
2018-07-28T07:52:58.754Z,21664.00
2018-07-28T07:53:58.750Z,22592.00
2018-07-28T07:54:58.749Z,22912.00
2018-07-28T07:55:58.747Z,24192.00
2018-07-28T07:56:58.710Z,26112.00
2018-07-28T07:57:58.702Z,27008.00
2018-07-28T07:58:58.690Z,27104.00
2018-07-28T07:59:58.682Z,23904.00
2018-07-28T08:00:58.672Z,23520.00
2018-07-28T08:01:58.686Z,24832.00
2018-07-28T08:02:58.651Z,23264.00
2018-07-28T08:03:58.643Z,22464.00
2018-07-28T08:04:58.630Z,21888.00
2018-07-28T08:05:58.618Z,20576.00
2018-07-28T08:06:58.611Z,20160.00
2018-07-28T08:07:58.617Z,19520.00
2018-07-28T08:08:58.607Z,19008.00
2018-07-28T08:09:58.583Z,19840.00
2018-07-28T08:10:58.568Z,19520.00
2018-07-28T08:11:58.559Z,19744.00
2018-07-28T08:12:58.546Z,20544.00
2018-07-28T08:13:58.554Z,21568.00
2018-07-28T08:14:58.543Z,22304.00
2018-07-28T08:15:58.517Z,22848.00
2018-07-28T08:16:58.505Z,23648.00
2018-07-28T08:17:58.497Z,24864.00
2018-07-28T08:18:58.513Z,26784.00
2018-07-28T08:19:58.494Z,24544.00
2018-07-28T08:20:58.472Z,22944.00
2018-07-28T08:21:58.453Z,22784.00
2018-07-28T08:22:58.443Z,22048.00
2018-07-28T08:23:58.435Z,21024.00
2018-07-28T08:24:58.440Z,21760.00
2018-07-28T08:25:58.432Z,22368.00
2018-07-28T08:26:58.402Z,22848.00
2018-07-28T08:27:58.394Z,26880.00
2018-07-28T08:28:58.384Z,32704.00
2018-07-28T08:29:58.378Z,31840.00
2018-07-28T08:30:58.381Z,39488.00
2018-07-28T08:31:58.350Z,38464.00
2018-07-28T08:32:58.342Z,38944.00
2018-07-28T08:33:58.330Z,30240.00
2018-07-28T08:34:58.325Z,26368.00
2018-07-28T08:35:58.330Z,23584.00
2018-07-28T08:36:58.300Z,22688.00
2018-07-28T08:37:58.349Z,22016.00
2018-07-28T08:38:58.282Z,21664.00
2018-07-28T08:39:58.286Z,21344.00
2018-07-28T08:40:58.275Z,20864.00
2018-07-28T08:41:58.252Z,20096.00
2018-07-28T08:42:58.245Z,19232.00
2018-07-28T08:43:58.233Z,18304.00
2018-07-28T08:44:58.227Z,17888.00
2018-07-28T08:45:58.237Z,17312.00
2018-07-28T08:46:58.203Z,16640.00
2018-07-28T08:47:58.192Z,15644.00
2018-07-28T08:48:58.202Z,15416.00
2018-07-28T08:49:58.191Z,16024.00
2018-07-28T08:50:58.160Z,15812.00
2018-07-28T08:51:58.148Z,13660.00
2018-07-28T08:52:58.137Z,12536.00
2018-07-28T08:53:58.130Z,11788.00
2018-07-28T08:54:58.121Z,11264.00
2018-07-28T08:55:58.129Z,10576.00
2018-07-28T08:56:58.097Z,9808.00
2018-07-28T08:57:58.088Z,8996.00
2018-07-28T08:58:58.077Z,8340.00
2018-07-28T08:59:58.084Z,7888.00
2018-07-28T09:00:58.058Z,7584.00
2018-07-28T09:01:58.047Z,7412.00
2018-07-28T09:02:58.035Z,7320.00
2018-07-28T09:03:58.024Z,7296.00
2018-07-28T09:04:58.013Z,7388.00
2018-07-28T09:05:58.043Z,7688.00
2018-07-28T09:06:57.993Z,8140.00
2018-07-28T09:07:57.979Z,8640.00
2018-07-28T09:08:57.972Z,9144.00
2018-07-28T09:09:57.965Z,9756.00
2018-07-28T09:10:57.948Z,10280.00
2018-07-28T09:11:57.958Z,10836.00
2018-07-28T09:12:57.929Z,10968.00
2018-07-28T09:13:57.984Z,10892.00
2018-07-28T09:14:57.907Z,10712.00
2018-07-28T09:15:57.898Z,10536.00
2018-07-28T09:16:57.883Z,10252.00
2018-07-28T09:17:57.903Z,10052.00
2018-07-28T09:18:57.862Z,10180.00
2018-07-28T09:19:57.873Z,10504.00
2018-07-28T09:20:57.844Z,10880.00
2018-07-28T09:21:57.847Z,11236.00
2018-07-28T09:22:57.823Z,11456.00
2018-07-28T09:23:57.809Z,11284.00
2018-07-28T09:24:57.799Z,10724.00
2018-07-28T09:25:57.788Z,9868.00
2018-07-28T09:26:57.799Z,9248.00
2018-07-28T09:27:57.771Z,8800.00
2018-07-28T09:28:57.757Z,8612.00
2018-07-28T09:29:57.747Z,8804.00
2018-07-28T09:30:57.760Z,9216.00
2018-07-28T09:31:57.745Z,9800.00
2018-07-28T09:32:57.717Z,10544.00
2018-07-28T09:33:57.706Z,11612.00
2018-07-28T09:34:57.696Z,12748.00
2018-07-28T09:35:57.708Z,14604.00
2018-07-28T09:36:57.721Z,15028.00
2018-07-28T09:37:57.662Z,14892.00
2018-07-28T09:38:57.653Z,14628.00
2018-07-28T09:39:57.641Z,13972.00
2018-07-28T09:40:57.673Z,14084.00
2018-07-28T09:41:57.623Z,14624.00
2018-07-28T09:42:57.611Z,15920.00
2018-07-28T09:43:57.599Z,18400.00
2018-07-28T09:44:57.587Z,18144.00
2018-07-28T09:45:57.580Z,18784.00
2018-07-28T09:46:57.595Z,18592.00
2018-07-28T09:47:57.582Z,18112.00
2018-07-28T09:48:57.546Z,17536.00
2018-07-28T09:49:57.532Z,16468.00
2018-07-28T09:50:57.522Z,15572.00
2018-07-28T09:51:57.511Z,14276.00
2018-07-28T09:52:57.501Z,12948.00
2018-07-28T09:53:57.505Z,12400.00
2018-07-28T09:54:57.482Z,12660.00
2018-07-28T09:55:57.471Z,13008.00
2018-07-28T09:56:57.462Z,13304.00
2018-07-28T09:57:57.451Z,13332.00
2018-07-28T09:58:57.518Z,13228.00
2018-07-28T09:59:57.428Z,13112.00
2018-07-28T10:00:57.416Z,13020.00
2018-07-28T10:01:57.411Z,12976.00
2018-07-28T10:02:57.396Z,12812.00
2018-07-28T10:03:57.391Z,12412.00
2018-07-28T10:04:57.394Z,11912.00
2018-07-28T10:05:57.362Z,11228.00
2018-07-28T10:06:57.352Z,10636.00
2018-07-28T10:07:57.341Z,10376.00
2018-07-28T10:08:57.347Z,10184.00
2018-07-28T10:09:57.336Z,10048.00
2018-07-28T10:10:57.308Z,9980.00
2018-07-28T10:11:57.307Z,10012.00
2018-07-28T10:12:57.291Z,10080.00
2018-07-28T10:13:57.305Z,10412.00
2018-07-28T10:14:57.265Z,10992.00
2018-07-28T10:15:57.258Z,12164.00
2018-07-28T10:16:57.243Z,13656.00
2018-07-28T10:17:57.241Z,15016.00
2018-07-28T10:18:57.225Z,16072.00
2018-07-28T10:19:57.240Z,16864.00
2018-07-28T10:20:57.204Z,17216.00
2018-07-28T10:21:57.197Z,17312.00
2018-07-28T10:22:57.251Z,17504.00
2018-07-28T10:23:57.170Z,17568.00
2018-07-28T10:24:57.164Z,17408.00
2018-07-28T10:25:57.163Z,17152.00
2018-07-28T10:26:57.145Z,16736.00
2018-07-28T10:27:57.149Z,15908.00
2018-07-28T10:28:57.119Z,15168.00
2018-07-28T10:29:57.112Z,14564.00
2018-07-28T10:30:57.132Z,14064.00
2018-07-28T10:31:57.089Z,13752.00
2018-07-28T10:32:57.076Z,13628.00
2018-07-28T10:33:57.068Z,13660.00
2018-07-28T10:34:57.069Z,13880.00
2018-07-28T10:35:57.043Z,14320.00
2018-07-28T10:36:57.073Z,14960.00
2018-07-28T10:37:57.021Z,15804.00
2018-07-28T10:38:57.010Z,16960.00
2018-07-28T10:39:56.998Z,17984.00
2018-07-28T10:40:56.990Z,19168.00
2018-07-28T10:41:56.978Z,20256.00
2018-07-28T10:42:56.982Z,21408.00
2018-07-28T10:43:56.958Z,22880.00
2018-07-28T10:44:56.948Z,23264.00
2018-07-28T10:45:56.937Z,24256.00
2018-07-28T10:46:56.951Z,23328.00
2018-07-28T10:47:56.916Z,22752.00
2018-07-28T10:48:56.902Z,22272.00
2018-07-28T10:49:56.898Z,21856.00
2018-07-28T10:50:56.884Z,21312.00
2018-07-28T10:51:56.910Z,20832.00
2018-07-28T10:52:56.879Z,20288.00
2018-07-28T10:53:56.851Z,19776.00
2018-07-28T10:54:56.852Z,19488.00
2018-07-28T10:55:56.829Z,19040.00
2018-07-28T10:56:56.822Z,19040.00
2018-07-28T10:57:56.823Z,19392.00
2018-07-28T10:58:56.801Z,19968.00
2018-07-28T10:59:56.862Z,20640.00
2018-07-28T11:00:56.776Z,21440.00
2018-07-28T11:01:56.766Z,22752.00
2018-07-28T11:02:56.780Z,23264.00
2018-07-28T11:03:56.746Z,23680.00
2018-07-28T11:04:56.734Z,23680.00
2018-07-28T11:05:56.726Z,23456.00
2018-07-28T11:06:56.715Z,24352.00
2018-07-28T11:07:56.725Z,25664.00
2018-07-28T11:08:56.720Z,28960.00
2018-07-28T11:09:56.700Z,31328.00
2018-07-28T11:10:56.681Z,26848.00
2018-07-28T11:11:56.661Z,27168.00
2018-07-28T11:12:56.653Z,30464.00
2018-07-28T11:13:56.659Z,36384.00
2018-07-28T11:14:56.633Z,32352.00
2018-07-28T11:15:56.622Z,30688.00
2018-07-28T11:16:56.626Z,29184.00
2018-07-28T11:17:56.603Z,28608.00
2018-07-28T11:18:56.604Z,25888.00
2018-07-28T11:19:56.576Z,24416.00
2018-07-28T11:20:56.565Z,23904.00
2018-07-28T11:21:56.573Z,23936.00
2018-07-28T11:22:56.552Z,23936.00
2018-07-28T11:23:56.541Z,23136.00
2018-07-28T11:24:56.527Z,21728.00
2018-07-28T11:25:56.539Z,20352.00
2018-07-28T11:26:56.528Z,20448.00
2018-07-28T11:27:56.496Z,21536.00
2018-07-28T11:28:56.482Z,25024.00
2018-07-28T11:29:56.477Z,37824.00
2018-07-28T11:30:56.461Z,24928.00
2018-07-28T11:31:56.515Z,23296.00
2018-07-28T11:32:56.459Z,20544.00
2018-07-28T11:33:56.438Z,18208.00
2018-07-28T11:34:56.422Z,16992.00
2018-07-28T11:35:56.410Z,15964.00
2018-07-28T11:36:56.402Z,14568.00
2018-07-28T11:37:56.483Z,12592.00
2018-07-28T11:38:56.380Z,10496.00
2018-07-28T11:39:56.386Z,8984.00
2018-07-28T11:40:56.359Z,8196.00
2018-07-28T11:41:56.349Z,8264.00
2018-07-28T11:42:56.334Z,8828.00
2018-07-28T11:43:56.329Z,9484.00
2018-07-28T11:44:56.317Z,10060.00
2018-07-28T11:45:56.463Z,11048.00
2018-07-28T11:46:56.298Z,12200.00
2018-07-28T11:47:56.288Z,11428.00
2018-07-28T11:48:56.272Z,10644.00
2018-07-28T11:49:56.261Z,9388.00
2018-07-28T11:50:56.269Z,8832.00
2018-07-28T11:51:56.265Z,8428.00
2018-07-28T11:52:56.234Z,8388.00
2018-07-28T11:53:56.220Z,8272.00
2018-07-28T11:54:56.225Z,7692.00
2018-07-28T11:55:56.201Z,7568.00
2018-07-28T11:56:56.199Z,8376.00
2018-07-28T11:57:56.212Z,9784.00
2018-07-28T11:58:56.169Z,11804.00
2018-07-28T11:59:56.155Z,14040.00
2018-07-28T12:00:56.145Z,16640.00
2018-07-28T12:01:56.134Z,20672.00
2018-07-28T12:02:56.125Z,23776.00
2018-07-28T12:03:56.124Z,25472.00
2018-07-28T12:04:56.101Z,35552.00
2018-07-28T12:05:56.093Z,27840.00
2018-07-28T12:06:56.078Z,27648.00
2018-07-28T12:07:56.083Z,37280.00
2018-07-28T12:08:56.060Z,36288.00
2018-07-28T12:09:56.073Z,38816.00
2018-07-28T12:10:56.058Z,42528.00
2018-07-28T12:11:56.025Z,48256.00
2018-07-28T12:12:56.055Z,36448.00
2018-07-28T12:13:56.007Z,34080.00
2018-07-28T12:14:55.994Z,29536.00
2018-07-28T12:15:55.990Z,54016.00